KGRK/GRK METAR and TAF weather

Enter ICAO airport designator
Station Type Date Time Source
KGRK METAR 2020/07/13 13:58 UTC NOAA

KGRK 131358Z AUTO 18005KT 10SM CLR 30/23 A2993 RMK AO2 SLP122 T02980229


Station Type Date Time Source
KGRK Decoded METAR 2020/07/13 13:58 UTC NOAA

Fort Hood, Robert Gray AAF Ft Hood, TX, United States (KGRK) 31-04N 097-49W
Jul 13, 2020 - 09:58 AM EDT / 2020.07.13 1358 UTC
Wind: from the S (180 degrees) at 6 MPH (5 KT):0
Visibility: 10 mile(s):0
Sky conditions: clear
Temperature: 85.6 F (29.8 C)
Heat index: 92.5 F (33.6 C):1
Dew Point: 73.2 F (22.9 C)
Relative Humidity: 66%
Pressure (altimeter): 29.93 in. Hg (1013 hPa)
ob: KGRK 131358Z AUTO 18005KT 10SM CLR 30/23 A2993 RMK AO2 SLP122 T02980229
cycle: 14

Station Type Date Time Source
KGRK TAF 2020/07/13 08:09 UTC NOAA

TAF KGRK 130800Z 1308/1414 16009KT 9999 SKC QNH2986INS
BECMG 1315/1316 18010G15KT 9999 SKC QNH2990INS
BECMG 1320/1321 20006KT 9999 SKC QNH2986INS TX41/1322Z TN24/1312Z

Example: see airport list